CheckWX is a tool to help pilots better visualize weather data.  It is not intended as a substitute for an official pre-flight weather briefing.

18:02:57 UTC

KGLY METAR
Clinton Regional Airport
Clinton, Missouri, USA
Current

8 mins ago

KGLY 241755Z AUTO 00000KT 5SM BR OVC008 15/14 A2991 RMK AO2
Observed
Apr-24 @ 17:55 UTC
Visibility
5 SM
Flight Rules
IFR
Conditions
Mist
Cloud Levels
  • Overcast at 800' AGL
Temperature
15°C / 59°F
Dewpoint
14°C / 57°F
Humidity
94%
Altimeter
29.91" Hg
Pressure
1012.92 hPa
Previous

28 mins ago

KGLY 241735Z AUTO 00000KT 5SM BR OVC008 15/14 A2992 RMK AO2
Observed
Apr-24 @ 17:35 UTC
Visibility
5 SM
Flight Rules
IFR
Conditions
Mist
Cloud Levels
  • Overcast at 800' AGL
Temperature
15°C / 59°F
Dewpoint
14°C / 57°F
Humidity
94%
Altimeter
29.92" Hg
Pressure
1013.22 hPa
Previous

48 mins ago

KGLY 241715Z AUTO 00000KT 5SM BR OVC008 15/14 A2993 RMK AO2
Observed
Apr-24 @ 17:15 UTC
Visibility
5 SM
Flight Rules
IFR
Conditions
Mist
Cloud Levels
  • Overcast at 800' AGL
Temperature
15°C / 59°F
Dewpoint
14°C / 57°F
Humidity
94%
Altimeter
29.93" Hg
Pressure
1013.52 hPa